Time;durP1;ratioP1;P1;durP2;ratioP2;P2;SDS_P1;SDS_P2;PMS_P1;PMS_P2;Temp;Humidity;BMP_temperature;BMP_pressure;BME280_temperature;BME280_humidity;BME280_pressure;Samples;Min_cycle;Max_cycle;Signal;HPM_P1;HPM_P2
2022/01/09 00:02:15;;;;;;;9.60;6.05;;;;;;;;;;5054327;28;20152;-67
2022/01/09 00:04:41;;;;;;;10.30;5.85;;;;;;;;;;5060074;28;20052;-67
2022/01/09 00:07:14;;;;;;;9.68;6.03;;;;;;;;;;5056642;28;20053;-67
2022/01/09 00:09:44;;;;;;;10.48;5.38;;;;;;;;;;5055096;28;20057;-68
2022/01/09 00:12:11;;;;;;;11.50;5.22;;;;;;;;;;5059544;28;20140;-68
2022/01/09 00:14:37;;;;;;;10.25;5.70;;;;;;;;;;5053654;28;20440;-67
2022/01/09 00:17:04;;;;;;;12.68;6.00;;;;;;;;;;5057659;28;20045;-68
2022/01/09 00:19:31;;;;;;;10.55;5.43;;;;;;;;;;5054149;28;20049;-67
2022/01/09 00:21:59;;;;;;;11.25;6.00;;;;;;;;;;5057947;28;20054;-68
2022/01/09 00:24:26;;;;;;;11.15;5.88;;;;;;;;;;5056896;28;20132;-67
2022/01/09 00:26:52;;;;;;;9.02;5.82;;;;;;;;;;5058075;28;20136;-68
2022/01/09 00:29:25;;;;;;;9.80;5.85;;;;;;;;;;5056164;28;20107;-69
2022/01/09 00:31:52;;;;;;;9.52;6.10;;;;;;;;;;5055540;28;20304;-67
2022/01/09 00:34:18;;;;;;;11.75;5.85;;;;;;;;;;5060209;28;20090;-67
2022/01/09 00:36:47;;;;;;;9.35;5.65;;;;;;;;;;5058734;28;20136;-68
2022/01/09 00:39:13;;;;;;;9.60;5.77;;;;;;;;;;5057390;28;20500;-65
2022/01/09 00:41:39;;;;;;;9.68;5.82;;;;;;;;;;5056521;28;20091;-68
2022/01/09 00:44:06;;;;;;;10.80;6.43;;;;;;;;;;5057595;28;20477;-67
2022/01/09 00:46:36;;;;;;;11.20;6.15;;;;;;;;;;5061478;28;20059;-67
2022/01/09 00:49:03;;;;;;;12.57;6.30;;;;;;;;;;5062034;28;20098;-67
2022/01/09 00:51:30;;;;;;;9.73;5.55;;;;;;;;;;5061552;28;20489;-65
2022/01/09 00:53:57;;;;;;;6.50;4.43;;;;;;;;;;5061809;28;20087;-65
2022/01/09 00:56:23;;;;;;;8.35;5.38;;;;;;;;;;5061732;28;20152;-67
2022/01/09 00:58:50;;;;;;;10.70;6.47;;;;;;;;;;5058998;28;20161;-67
2022/01/09 01:01:16;;;;;;;10.07;6.40;;;;;;;;;;5059584;28;20040;-67
2022/01/09 01:03:42;;;;;;;11.75;7.07;;;;;;;;;;5057369;28;20096;-67
2022/01/09 01:06:13;;;;;;;10.82;6.45;;;;;;;;;;5059462;28;20397;-67
2022/01/09 01:08:39;;;;;;;12.00;7.22;;;;;;;;;;5061154;28;20060;-67
2022/01/09 01:11:06;;;;;;;11.65;6.95;;;;;;;;;;5064093;28;20132;-68
2022/01/09 01:13:34;;;;;;;10.98;6.82;;;;;;;;;;5061333;28;20124;-68
2022/01/09 01:16:01;;;;;;;12.57;6.93;;;;;;;;;;5058305;28;20071;-67
2022/01/09 01:18:27;;;;;;;13.38;6.97;;;;;;;;;;5042691;28;20045;-68
2022/01/09 01:20:57;;;;;;;13.00;7.22;;;;;;;;;;5060504;28;20418;-65
2022/01/09 01:23:24;;;;;;;11.65;7.18;;;;;;;;;;5059965;28;20087;-68
2022/01/09 01:25:52;;;;;;;12.68;7.50;;;;;;;;;;5061421;28;20048;-67
2022/01/09 01:28:24;;;;;;;15.07;6.97;;;;;;;;;;5060070;28;20135;-67
2022/01/09 01:30:51;;;;;;;13.13;7.68;;;;;;;;;;5056014;28;20123;-68
2022/01/09 01:33:17;;;;;;;13.77;8.05;;;;;;;;;;5061233;28;20476;-68
2022/01/09 01:35:51;;;;;;;12.43;7.13;;;;;;;;;;5062461;28;20412;-68
2022/01/09 01:38:17;;;;;;;12.95;7.50;;;;;;;;;;5061063;28;20485;-67
2022/01/09 01:40:44;;;;;;;14.65;7.47;;;;;;;;;;5061743;28;20496;-68
2022/01/09 01:43:10;;;;;;;12.52;7.75;;;;;;;;;;5059241;28;20510;-65
2022/01/09 01:45:37;;;;;;;13.07;7.70;;;;;;;;;;5062566;28;20666;-65
2022/01/09 01:48:07;;;;;;;13.48;6.63;;;;;;;;;;5059123;28;20084;-65
2022/01/09 01:50:38;;;;;;;13.13;6.78;;;;;;;;;;5058360;28;20048;-65
2022/01/09 01:53:10;;;;;;;13.82;7.28;;;;;;;;;;5064145;28;20053;-68
2022/01/09 01:55:39;;;;;;;13.23;7.28;;;;;;;;;;5061389;28;20460;-68
2022/01/09 01:58:06;;;;;;;12.95;7.22;;;;;;;;;;5058132;28;20140;-67
2022/01/09 02:00:33;;;;;;;10.68;5.40;;;;;;;;;;5063292;28;20088;-68
2022/01/09 02:03:03;;;;;;;11.25;6.40;;;;;;;;;;5062726;28;20066;-69
2022/01/09 02:05:30;;;;;;;10.98;6.45;;;;;;;;;;5063582;28;20052;-69
2022/01/09 02:07:58;;;;;;;10.70;6.70;;;;;;;;;;5061235;28;20088;-68
2022/01/09 02:10:30;;;;;;;11.95;6.88;;;;;;;;;;5056440;28;20727;-66
2022/01/09 02:12:57;;;;;;;11.98;7.35;;;;;;;;;;5058356;28;20235;-65
2022/01/09 02:15:29;;;;;;;12.32;6.97;;;;;;;;;;5062986;28;20051;-65
2022/01/09 02:17:56;;;;;;;9.45;5.88;;;;;;;;;;5061921;28;20148;-65
2022/01/09 02:20:22;;;;;;;12.38;7.00;;;;;;;;;;5057390;28;20080;-66
2022/01/09 02:22:49;;;;;;;12.73;6.38;;;;;;;;;;5057361;28;20155;-66
2022/01/09 02:25:19;;;;;;;9.98;5.55;;;;;;;;;;5057465;28;20140;-65
2022/01/09 02:27:46;;;;;;;10.65;5.72;;;;;;;;;;5058945;28;20052;-68
2022/01/09 02:30:12;;;;;;;9.35;5.50;;;;;;;;;;5056896;28;20051;-68
2022/01/09 02:32:39;;;;;;;8.13;5.25;;;;;;;;;;5054357;28;20355;-68
2022/01/09 02:35:05;;;;;;;9.80;5.53;;;;;;;;;;5054896;28;20049;-68
2022/01/09 02:37:31;;;;;;;7.38;4.75;;;;;;;;;;5055133;28;20136;-68
2022/01/09 02:39:58;;;;;;;6.97;4.30;;;;;;;;;;5059232;28;20140;-68
2022/01/09 02:42:27;;;;;;;8.02;4.78;;;;;;;;;;5057052;28;20521;-68
2022/01/09 02:44:55;;;;;;;7.93;4.82;;;;;;;;;;5059836;28;20080;-68
2022/01/09 02:47:32;;;;;;;6.72;4.40;;;;;;;;;;5056415;28;20136;-68
2022/01/09 02:50:07;;;;;;;7.75;4.82;;;;;;;;;;5058329;28;20055;-68
2022/01/09 02:52:36;;;;;;;8.15;5.13;;;;;;;;;;5058759;28;20132;-69
2022/01/09 02:55:12;;;;;;;7.32;3.83;;;;;;;;;;5054017;28;20132;-68
2022/01/09 02:57:39;;;;;;;7.75;4.93;;;;;;;;;;5057228;28;20152;-68
2022/01/09 03:00:07;;;;;;;11.38;5.05;;;;;;;;;;5061266;28;20064;-67
2022/01/09 03:02:33;;;;;;;7.60;4.85;;;;;;;;;;5051116;28;20128;-65
2022/01/09 03:05:00;;;;;;;7.95;5.05;;;;;;;;;;5057096;28;20053;-65
2022/01/09 03:07:26;;;;;;;8.97;5.93;;;;;;;;;;5059456;28;20091;-65
2022/01/09 03:09:53;;;;;;;7.75;5.00;;;;;;;;;;5054535;28;20385;-65
2022/01/09 03:12:20;;;;;;;10.07;5.03;;;;;;;;;;5057321;28;20595;-65
2022/01/09 03:14:46;;;;;;;8.45;5.22;;;;;;;;;;5054111;28;20502;-65
2022/01/09 03:17:12;;;;;;;6.50;4.22;;;;;;;;;;5059489;28;20139;-65
2022/01/09 03:19:45;;;;;;;10.30;5.60;;;;;;;;;;5053720;28;20496;-65
2022/01/09 03:22:12;;;;;;;8.05;4.93;;;;;;;;;;5058524;28;20571;-65
2022/01/09 03:24:38;;;;;;;9.32;4.85;;;;;;;;;;5057101;28;20592;-65
2022/01/09 03:27:11;;;;;;;6.93;4.43;;;;;;;;;;5056076;28;20136;-65
2022/01/09 03:29:38;;;;;;;9.18;5.00;;;;;;;;;;5060390;28;20041;-65
2022/01/09 03:32:06;;;;;;;8.63;5.47;;;;;;;;;;5062275;28;20063;-65
2022/01/09 03:34:35;;;;;;;7.75;5.05;;;;;;;;;;5054632;28;20124;-65
2022/01/09 03:37:02;;;;;;;7.57;4.47;;;;;;;;;;5058064;28;20132;-65
2022/01/09 03:39:28;;;;;;;11.63;5.88;;;;;;;;;;5058145;28;20144;-68
2022/01/09 03:41:58;;;;;;;8.75;5.43;;;;;;;;;;5059033;28;20044;-68
2022/01/09 03:44:25;;;;;;;9.70;5.70;;;;;;;;;;5056698;28;20244;-65
2022/01/09 03:46:51;;;;;;;7.88;4.80;;;;;;;;;;5056567;28;20040;-65
2022/01/09 03:49:25;;;;;;;9.23;5.47;;;;;;;;;;5059568;28;20076;-67
2022/01/09 03:51:52;;;;;;;8.98;5.68;;;;;;;;;;5055801;28;20127;-68
2022/01/09 03:54:22;;;;;;;7.55;4.88;;;;;;;;;;5057690;28;20143;-68
2022/01/09 03:56:50;;;;;;;9.07;5.47;;;;;;;;;;5059873;28;20560;-68
2022/01/09 03:59:16;;;;;;;8.73;5.72;;;;;;;;;;5059512;28;20132;-67
2022/01/09 04:01:43;;;;;;;11.00;4.60;;;;;;;;;;5056594;28;20048;-66
2022/01/09 04:04:16;;;;;;;7.82;4.60;;;;;;;;;;5059822;28;20091;-66
2022/01/09 04:06:46;;;;;;;7.00;4.32;;;;;;;;;;5055290;28;20093;-66
2022/01/09 04:09:38;;;;;;;6.90;4.60;;;;;;;;;;5055690;28;20567;-65
2022/01/09 04:12:19;;;;;;;7.70;5.10;;;;;;;;;;5056342;28;20056;-67
2022/01/09 04:14:46;;;;;;;7.68;4.75;;;;;;;;;;5056478;28;20044;-66
2022/01/09 04:17:40;;;;;;;6.50;4.18;;;;;;;;;;5061711;28;20132;-66
2022/01/09 04:20:07;;;;;;;7.03;3.28;;;;;;;;;;5060531;28;20102;-66
2022/01/09 04:22:34;;;;;;;6.38;4.22;;;;;;;;;;5060765;28;20128;-66
2022/01/09 04:25:01;;;;;;;5.57;3.42;;;;;;;;;;5060774;28;20564;-66
2022/01/09 04:27:27;;;;;;;4.80;3.17;;;;;;;;;;5059651;28;20139;-66
2022/01/09 04:29:54;;;;;;;6.33;4.20;;;;;;;;;;5061610;28;20091;-66
2022/01/09 04:32:20;;;;;;;5.35;3.45;;;;;;;;;;5058393;28;20140;-66
2022/01/09 04:34:46;;;;;;;6.20;3.40;;;;;;;;;;5060768;28;20051;-66
2022/01/09 04:37:20;;;;;;;5.88;3.38;;;;;;;;;;5059838;28;20115;-66
2022/01/09 04:39:48;;;;;;;5.10;3.30;;;;;;;;;;5067027;28;20098;-66
2022/01/09 04:42:15;;;;;;;5.25;3.70;;;;;;;;;;5059875;28;20044;-66
2022/01/09 04:44:42;;;;;;;3.60;2.17;;;;;;;;;;5055811;28;20053;-66
2022/01/09 04:47:14;;;;;;;5.78;3.30;;;;;;;;;;5060163;28;20083;-66
2022/01/09 04:49:44;;;;;;;4.57;3.10;;;;;;;;;;5061947;28;20073;-66
2022/01/09 04:52:14;;;;;;;4.53;3.00;;;;;;;;;;5061590;28;20147;-66
2022/01/09 04:54:41;;;;;;;6.07;3.20;;;;;;;;;;5058025;28;20164;-66
2022/01/09 04:57:08;;;;;;;4.57;3.15;;;;;;;;;;5053210;28;20055;-66
2022/01/09 04:59:35;;;;;;;5.18;3.55;;;;;;;;;;5061712;28;20048;-65
2022/01/09 05:02:02;;;;;;;3.70;2.50;;;;;;;;;;5060104;28;20056;-66
2022/01/09 05:04:28;;;;;;;4.73;3.10;;;;;;;;;;5062483;28;20472;-66
2022/01/09 05:07:02;;;;;;;4.75;2.90;;;;;;;;;;5060675;28;20052;-66
2022/01/09 05:09:28;;;;;;;5.03;2.75;;;;;;;;;;5063445;28;20080;-66
2022/01/09 05:11:54;;;;;;;4.65;3.03;;;;;;;;;;5065043;28;20075;-66
2022/01/09 05:14:21;;;;;;;5.05;2.33;;;;;;;;;;5059584;28;20140;-66
2022/01/09 05:16:49;;;;;;;6.13;3.15;;;;;;;;;;5060274;28;20076;-66
2022/01/09 05:19:28;;;;;;;3.85;2.50;;;;;;;;;;5057344;28;20053;-66
2022/01/09 05:21:59;;;;;;;4.03;2.33;;;;;;;;;;5059698;28;20087;-66
2022/01/09 05:24:25;;;;;;;3.10;2.17;;;;;;;;;;5055510;28;20486;-66
2022/01/09 05:26:52;;;;;;;3.58;2.60;;;;;;;;;;5057193;28;20196;-67
2022/01/09 05:29:22;;;;;;;;;;;;;;;;;;5055891;28;20143;-66
2022/01/09 05:31:49;;;;;;;4.28;2.67;;;;;;;;;;5062522;28;19963;-66
2022/01/09 05:34:15;;;;;;;5.68;2.83;;;;;;;;;;5061625;28;20472;-66
2022/01/09 05:36:49;;;;;;;4.15;2.38;;;;;;;;;;5055211;28;20080;-66
2022/01/09 05:39:15;;;;;;;2.23;1.73;;;;;;;;;;5059144;28;20084;-66
2022/01/09 05:41:42;;;;;;;4.75;2.33;;;;;;;;;;5057296;28;20044;-66
2022/01/09 05:44:09;;;;;;;5.13;2.25;;;;;;;;;;5057019;28;20135;-66
2022/01/09 05:46:42;;;;;;;3.40;2.53;;;;;;;;;;5058329;28;20791;-66
2022/01/09 05:49:09;;;;;;;7.38;2.25;;;;;;;;;;5059675;28;20463;-66
2022/01/09 05:51:35;;;;;;;4.15;2.30;;;;;;;;;;5060664;28;20080;-66
2022/01/09 05:54:08;;;;;;;3.92;2.55;;;;;;;;;;5058852;28;20131;-66
2022/01/09 05:56:35;;;;;;;3.87;2.50;;;;;;;;;;5058037;28;20060;-66
2022/01/09 05:59:01;;;;;;;3.78;2.38;;;;;;;;;;5061434;28;20568;-66
2022/01/09 06:01:28;;;;;;;5.97;2.75;;;;;;;;;;5059336;28;20099;-66
2022/01/09 06:03:55;;;;;;;3.47;2.00;;;;;;;;;;5064899;28;20075;-66
2022/01/09 06:06:21;;;;;;;6.00;3.00;;;;;;;;;;5061887;28;20476;-66
2022/01/09 06:08:49;;;;;;;4.93;2.83;;;;;;;;;;5058689;28;20487;-66
2022/01/09 06:11:15;;;;;;;4.20;2.63;;;;;;;;;;5055906;28;20144;-66
2022/01/09 06:13:42;;;;;;;3.80;2.65;;;;;;;;;;5058734;28;20128;-66
2022/01/09 06:16:11;;;;;;;4.07;2.72;;;;;;;;;;5058239;28;20095;-66
2022/01/09 06:18:37;;;;;;;3.08;2.15;;;;;;;;;;5057772;28;20080;-66
2022/01/09 06:21:03;;;;;;;4.25;2.90;;;;;;;;;;5054862;28;20838;-66
2022/01/09 06:23:30;;;;;;;4.05;2.80;;;;;;;;;;5057900;28;20084;-66
2022/01/09 06:25:56;;;;;;;3.72;2.22;;;;;;;;;;5055282;28;20136;-66
2022/01/09 06:28:23;;;;;;;4.45;2.63;;;;;;;;;;5054899;28;20139;-66
2022/01/09 06:30:49;;;;;;;4.63;2.00;;;;;;;;;;5057258;28;20076;-66
2022/01/09 06:33:16;;;;;;;3.85;2.58;;;;;;;;;;5060425;28;20053;-66
2022/01/09 06:35:44;;;;;;;6.40;2.60;;;;;;;;;;5060983;28;20083;-66
2022/01/09 06:38:11;;;;;;;4.47;2.78;;;;;;;;;;5059023;28;20095;-66
2022/01/09 06:40:38;;;;;;;9.50;2.90;;;;;;;;;;5058389;28;20132;-66
2022/01/09 06:43:05;;;;;;;3.80;2.63;;;;;;;;;;5056979;28;20301;-66
2022/01/09 06:45:32;;;;;;;3.53;2.15;;;;;;;;;;5058100;28;20076;-66
2022/01/09 06:47:58;;;;;;;4.15;2.63;;;;;;;;;;5057165;28;20131;-66
2022/01/09 06:50:25;;;;;;;2.78;1.55;;;;;;;;;;5057590;28;20091;-66
2022/01/09 06:52:52;;;;;;;4.18;2.30;;;;;;;;;;5063285;28;20127;-66
2022/01/09 06:55:18;;;;;;;6.63;1.77;;;;;;;;;;5060600;28;20080;-66
2022/01/09 06:57:47;;;;;;;3.33;2.25;;;;;;;;;;5056718;28;20381;-66
2022/01/09 07:00:20;;;;;;;3.50;2.13;;;;;;;;;;5054129;28;20176;-66
2022/01/09 07:02:47;;;;;;;3.42;1.65;;;;;;;;;;5063949;28;20083;-66
2022/01/09 07:05:14;;;;;;;4.90;2.20;;;;;;;;;;5056715;28;20048;-66
2022/01/09 07:07:43;;;;;;;4.22;2.17;;;;;;;;;;5059914;28;20123;-66
2022/01/09 07:10:09;;;;;;;4.30;1.70;;;;;;;;;;5058404;28;20083;-66
2022/01/09 07:12:36;;;;;;;2.95;1.73;;;;;;;;;;5056723;28;20135;-66
2022/01/09 07:15:10;;;;;;;1.75;1.40;;;;;;;;;;5056789;28;20568;-66
2022/01/09 07:17:36;;;;;;;3.03;1.98;;;;;;;;;;5057955;28;20053;-66
2022/01/09 07:20:03;;;;;;;3.03;1.73;;;;;;;;;;5055913;28;20040;-66
2022/01/09 07:22:30;;;;;;;2.53;1.65;;;;;;;;;;5054291;28;20139;-66
2022/01/09 07:24:56;;;;;;;2.37;1.90;;;;;;;;;;5057812;28;20103;-66
2022/01/09 07:27:23;;;;;;;3.77;2.10;;;;;;;;;;5055809;28;20327;-66
2022/01/09 07:29:51;;;;;;;4.05;2.42;;;;;;;;;;5053776;28;20382;-66
2022/01/09 07:32:18;;;;;;;3.83;2.33;;;;;;;;;;5057879;28;20124;-66
2022/01/09 07:34:44;;;;;;;2.60;1.85;;;;;;;;;;5057293;28;20052;-66
2022/01/09 07:37:12;;;;;;;3.05;2.22;;;;;;;;;;5057912;28;20144;-66
2022/01/09 07:39:39;;;;;;;4.87;2.20;;;;;;;;;;5055668;28;20107;-66
2022/01/09 07:42:05;;;;;;;4.20;2.37;;;;;;;;;;5058489;28;20080;-66
2022/01/09 07:44:32;;;;;;;2.70;2.10;;;;;;;;;;5060534;28;20736;-66
2022/01/09 07:46:58;;;;;;;4.85;2.53;;;;;;;;;;5058318;28;20144;-66
2022/01/09 07:49:25;;;;;;;2.50;1.93;;;;;;;;;;5055605;28;20155;-66
2022/01/09 07:51:55;;;;;;;2.67;2.17;;;;;;;;;;5054215;28;20051;-66
2022/01/09 07:54:21;;;;;;;3.45;2.75;;;;;;;;;;5061489;28;20063;-66
2022/01/09 07:56:47;;;;;;;3.58;2.50;;;;;;;;;;5055142;28;20129;-66
2022/01/09 07:59:20;;;;;;;5.35;2.70;;;;;;;;;;5056080;28;20080;-66
2022/01/09 08:01:47;;;;;;;3.40;2.20;;;;;;;;;;5053423;28;20132;-66
2022/01/09 08:04:13;;;;;;;4.70;2.80;;;;;;;;;;5056270;28;20152;-66
2022/01/09 08:06:47;;;;;;;5.95;2.90;;;;;;;;;;5052834;28;20040;-66
2022/01/09 08:09:13;;;;;;;5.10;2.97;;;;;;;;;;5055217;28;20383;-66
2022/01/09 08:11:39;;;;;;;6.68;2.88;;;;;;;;;;5054923;28;20087;-66
2022/01/09 08:14:07;;;;;;;3.83;2.75;;;;;;;;;;5057833;28;20055;-66
2022/01/09 08:16:33;;;;;;;9.27;2.78;;;;;;;;;;5057454;28;20128;-66
2022/01/09 08:18:59;;;;;;;7.88;2.90;;;;;;;;;;5056747;28;20055;-66
2022/01/09 08:21:29;;;;;;;5.35;3.40;;;;;;;;;;5053904;28;20531;-66
2022/01/09 08:23:56;;;;;;;;;;;;;;;;;;5051712;28;20348;-66
2022/01/09 08:26:22;;;;;;;5.85;3.58;;;;;;;;;;5055718;28;20372;-66
2022/01/09 08:28:49;;;;;;;5.10;3.03;;;;;;;;;;5058221;28;20146;-66
2022/01/09 08:31:16;;;;;;;6.95;3.70;;;;;;;;;;5058718;28;20448;-66
2022/01/09 08:33:43;;;;;;;;;;;;;;;;;;5057602;28;20045;-66
2022/01/09 08:36:16;;;;;;;5.88;3.60;;;;;;;;;;5056823;28;20007;-66
2022/01/09 08:38:42;;;;;;;6.45;3.67;;;;;;;;;;5056971;28;20477;-66
2022/01/09 08:41:09;;;;;;;7.75;4.10;;;;;;;;;;5054996;28;20080;-66
2022/01/09 08:43:36;;;;;;;5.53;3.20;;;;;;;;;;5054791;28;20528;-67
2022/01/09 08:46:03;;;;;;;6.47;3.55;;;;;;;;;;5062649;28;20040;-66
2022/01/09 08:48:30;;;;;;;9.25;3.80;;;;;;;;;;5055346;28;20076;-66
2022/01/09 08:50:56;;;;;;;7.43;4.35;;;;;;;;;;5058975;28;20080;-66
2022/01/09 08:53:24;;;;;;;7.88;4.97;;;;;;;;;;5056742;28;20093;-66
2022/01/09 08:55:50;;;;;;;6.57;4.60;;;;;;;;;;5060252;28;20120;-66
2022/01/09 08:58:16;;;;;;;7.68;4.40;;;;;;;;;;5052461;28;20460;-66
2022/01/09 09:00:43;;;;;;;6.97;4.28;;;;;;;;;;5059706;28;20127;-66
2022/01/09 09:03:09;;;;;;;8.70;4.70;;;;;;;;;;5058263;28;20049;-66
2022/01/09 09:05:36;;;;;;;8.05;4.22;;;;;;;;;;5056898;28;20583;-66
2022/01/09 09:08:09;;;;;;;7.28;4.35;;;;;;;;;;5054768;28;20124;-66
2022/01/09 09:10:36;;;;;;;11.90;4.10;;;;;;;;;;5061582;28;20086;-66
2022/01/09 09:13:02;;;;;;;8.75;4.70;;;;;;;;;;5060674;28;20080;-66
2022/01/09 09:15:29;;;;;;;8.23;4.32;;;;;;;;;;5060951;28;20075;-66
2022/01/09 09:17:55;;;;;;;8.73;3.40;;;;;;;;;;5056296;28;20580;-67
2022/01/09 09:20:22;;;;;;;8.73;4.70;;;;;;;;;;5058788;28;20067;-67
2022/01/09 09:22:50;;;;;;;7.82;4.20;;;;;;;;;;5060863;28;20140;-67
2022/01/09 09:25:18;;;;;;;7.80;4.30;;;;;;;;;;5060722;28;20152;-67
2022/01/09 09:27:45;;;;;;;9.00;3.92;;;;;;;;;;5055770;28;20087;-66
2022/01/09 09:30:14;;;;;;;5.32;3.53;;;;;;;;;;5061001;28;20052;-66
2022/01/09 09:32:42;;;;;;;5.65;3.75;;;;;;;;;;5057554;28;20697;-66
2022/01/09 09:35:08;;;;;;;;;;;;;;;;;;5062442;28;20049;-67
2022/01/09 09:37:34;;;;;;;6.15;3.90;;;;;;;;;;5061258;28;19920;-66
2022/01/09 09:40:01;;;;;;;5.22;3.90;;;;;;;;;;5062422;28;20132;-66
2022/01/09 09:42:28;;;;;;;3.72;2.60;;;;;;;;;;5062256;28;20584;-67
2022/01/09 09:45:00;;;;;;;7.78;4.35;;;;;;;;;;5065524;28;20137;-67
2022/01/09 09:47:27;;;;;;;5.38;3.70;;;;;;;;;;5063082;28;20420;-66
2022/01/09 09:49:54;;;;;;;7.33;3.63;;;;;;;;;;5060756;28;20140;-66
2022/01/09 09:52:20;;;;;;;4.35;3.03;;;;;;;;;;5063431;28;20378;-67
2022/01/09 09:54:48;;;;;;;3.53;2.80;;;;;;;;;;5066151;28;20132;-66
2022/01/09 09:57:14;;;;;;;6.15;3.95;;;;;;;;;;5059297;28;20555;-66
2022/01/09 09:59:45;;;;;;;6.70;3.88;;;;;;;;;;5039433;28;20052;-66
2022/01/09 10:02:13;;;;;;;8.48;4.28;;;;;;;;;;5060358;28;20107;-66
2022/01/09 10:04:58;;;;;;;9.77;4.05;;;;;;;;;;5063971;28;20059;-66
2022/01/09 10:07:25;;;;;;;10.18;4.20;;;;;;;;;;5054510;28;20080;-66
2022/01/09 10:09:53;;;;;;;8.38;4.28;;;;;;;;;;5058314;28;20096;-66
2022/01/09 10:12:26;;;;;;;7.32;4.18;;;;;;;;;;5041853;28;20132;-66
2022/01/09 10:14:54;;;;;;;8.35;4.53;;;;;;;;;;5060479;28;20128;-66
2022/01/09 10:17:20;;;;;;;;;;;;;;;;;;5062921;28;20473;-66
2022/01/09 10:19:52;;;;;;;5.32;3.55;;;;;;;;;;5060930;28;19920;-66
2022/01/09 10:22:22;;;;;;;9.20;4.10;;;;;;;;;;5058392;28;20072;-66
2022/01/09 10:24:48;;;;;;;8.20;3.85;;;;;;;;;;5057771;28;20115;-66
2022/01/09 10:27:34;;;;;;;6.53;3.90;;;;;;;;;;5056571;28;20127;-66
2022/01/09 10:30:03;;;;;;;6.97;4.13;;;;;;;;;;5062733;28;20124;-66
2022/01/09 10:32:29;;;;;;;6.18;3.35;;;;;;;;;;5058590;28;20271;-66
2022/01/09 10:35:14;;;;;;;6.95;3.40;;;;;;;;;;5059171;28;20426;-66
2022/01/09 10:37:42;;;;;;;4.93;3.75;;;;;;;;;;5046308;28;20088;-66
2022/01/09 10:40:10;;;;;;;10.68;4.00;;;;;;;;;;5038168;28;20077;-66
2022/01/09 10:42:37;;;;;;;10.05;4.13;;;;;;;;;;5037681;28;20131;-65
2022/01/09 10:45:21;;;;;;;6.10;2.90;;;;;;;;;;5038487;28;20133;-66
2022/01/09 10:47:48;;;;;;;5.85;3.30;;;;;;;;;;5041158;28;20099;-66
2022/01/09 10:50:43;;;;;;;6.13;2.97;;;;;;;;;;5037660;28;20092;-66
2022/01/09 10:53:12;;;;;;;10.10;3.90;;;;;;;;;;5032825;28;20073;-66
2022/01/09 10:55:40;;;;;;;10.50;4.38;;;;;;;;;;5040380;28;20132;-66
2022/01/09 10:58:19;;;;;;;7.57;3.42;;;;;;;;;;5038969;28;20047;-66
2022/01/09 11:00:46;;;;;;;10.73;4.57;;;;;;;;;;5036149;28;20132;-66
2022/01/09 11:03:13;;;;;;;8.73;4.05;;;;;;;;;;5036059;28;20086;-66
2022/01/09 11:05:40;;;;;;;8.52;3.28;;;;;;;;;;5036951;28;20497;-65
2022/01/09 11:08:07;;;;;;;8.07;3.63;;;;;;;;;;5034471;28;21550;-65
2022/01/09 11:10:34;;;;;;;12.40;4.47;;;;;;;;;;5041998;28;20140;-65
2022/01/09 11:13:01;;;;;;;6.15;3.03;;;;;;;;;;5038749;28;20076;-65
2022/01/09 11:15:31;;;;;;;8.02;4.07;;;;;;;;;;5040860;28;20501;-65
2022/01/09 11:17:58;;;;;;;8.38;3.90;;;;;;;;;;5033545;28;20469;-65
2022/01/09 11:20:25;;;;;;;;;;;;;;;;;;5036656;28;20051;-65
2022/01/09 11:22:59;;;;;;;6.78;3.65;;;;;;;;;;5037739;28;19925;-65
2022/01/09 11:25:38;;;;;;;11.38;3.85;;;;;;;;;;5036000;28;20456;-66
2022/01/09 11:28:12;;;;;;;12.45;4.43;;;;;;;;;;5031945;28;20069;-65
2022/01/09 11:30:38;;;;;;;10.23;5.13;;;;;;;;;;5032289;28;20084;-66
2022/01/09 11:33:23;;;;;;;9.95;3.92;;;;;;;;;;5039560;28;20128;-65
2022/01/09 11:36:13;;;;;;;10.07;4.25;;;;;;;;;;5039075;28;20076;-65
2022/01/09 11:38:52;;;;;;;3.60;2.90;;;;;;;;;;5024577;28;20056;-66
2022/01/09 11:41:20;;;;;;;5.00;3.35;;;;;;;;;;5037417;28;20242;-66
2022/01/09 11:43:54;;;;;;;7.75;3.58;;;;;;;;;;5035264;28;20147;-66
2022/01/09 11:46:21;;;;;;;7.28;3.78;;;;;;;;;;5033321;28;20045;-66
2022/01/09 11:48:51;;;;;;;10.90;3.90;;;;;;;;;;5035072;28;20119;-66
2022/01/09 11:51:21;;;;;;;14.20;4.20;;;;;;;;;;5034551;28;20073;-66
2022/01/09 11:53:57;;;;;;;5.97;3.60;;;;;;;;;;5032319;28;20051;-66
2022/01/09 11:56:43;;;;;;;11.93;4.20;;;;;;;;;;5038888;28;20073;-66
2022/01/09 11:59:34;;;;;;;;;;;;;;;;;;5032877;28;20055;-66
2022/01/09 12:02:29;;;;;;;10.43;4.68;;;;;;;;;;5035290;28;19932;-66
2022/01/09 12:04:57;;;;;;;8.40;4.20;;;;;;;;;;5033915;28;20132;-66
2022/01/09 12:07:32;;;;;;;7.88;3.90;;;;;;;;;;5036632;28;20057;-66
2022/01/09 12:10:22;;;;;;;9.38;4.03;;;;;;;;;;5037866;28;20132;-66
2022/01/09 12:12:52;;;;;;;9.20;3.78;;;;;;;;;;5033529;28;20496;-66
2022/01/09 12:15:33;;;;;;;10.48;3.58;;;;;;;;;;5036788;28;20124;-65
2022/01/09 12:18:03;;;;;;;10.20;4.35;;;;;;;;;;5041706;28;20095;-66
2022/01/09 12:20:37;;;;;;;8.90;4.15;;;;;;;;;;5036817;28;20060;-66
2022/01/09 12:23:05;;;;;;;5.82;4.18;;;;;;;;;;5033420;28;20049;-66
2022/01/09 12:25:34;;;;;;;10.23;4.00;;;;;;;;;;5036181;28;20124;-66
2022/01/09 12:28:14;;;;;;;4.82;3.28;;;;;;;;;;5034797;28;20497;-66
2022/01/09 12:30:52;;;;;;;8.48;3.72;;;;;;;;;;5037683;28;20063;-66
2022/01/09 12:33:20;;;;;;;11.90;4.15;;;;;;;;;;5037503;28;20140;-66
2022/01/09 12:35:48;;;;;;;12.20;4.40;;;;;;;;;;5033630;28;20515;-66
2022/01/09 12:38:19;;;;;;;9.68;3.88;;;;;;;;;;5053532;28;20134;-66
2022/01/09 12:40:46;;;;;;;11.85;4.35;;;;;;;;;;5053376;28;20113;-66
2022/01/09 12:43:13;;;;;;;7.13;3.83;;;;;;;;;;5058184;28;20067;-66
2022/01/09 12:45:43;;;;;;;7.07;3.60;;;;;;;;;;5060024;28;20556;-66
2022/01/09 12:48:20;;;;;;;11.55;4.72;;;;;;;;;;5057202;28;20474;-65
2022/01/09 12:50:48;;;;;;;4.95;2.40;;;;;;;;;;5060692;28;20411;-66
2022/01/09 12:53:22;;;;;;;8.70;3.83;;;;;;;;;;5039528;28;20055;-66
2022/01/09 12:55:51;;;;;;;9.10;4.05;;;;;;;;;;5060333;28;20052;-66
2022/01/09 12:58:23;;;;;;;9.32;3.38;;;;;;;;;;5057259;28;20781;-65
2022/01/09 13:00:49;;;;;;;11.02;4.18;;;;;;;;;;5057966;28;20560;-65
2022/01/09 13:03:20;;;;;;;10.57;3.55;;;;;;;;;;5041117;28;20071;-66
2022/01/09 13:06:13;;;;;;;11.45;3.92;;;;;;;;;;5041005;28;20049;-66
2022/01/09 13:08:44;;;;;;;12.63;4.05;;;;;;;;;;5039454;28;20053;-66
2022/01/09 13:11:12;;;;;;;13.10;3.58;;;;;;;;;;5049179;28;20163;-65
2022/01/09 13:13:39;;;;;;;11.15;4.13;;;;;;;;;;5041521;28;20047;-66
2022/01/09 13:16:18;;;;;;;5.45;2.85;;;;;;;;;;5044466;28;20045;-67
2022/01/09 13:18:44;;;;;;;12.93;3.88;;;;;;;;;;5057057;28;20188;-67
2022/01/09 13:21:18;;;;;;;8.02;3.22;;;;;;;;;;5055973;28;20439;-67
2022/01/09 13:24:03;;;;;;;9.50;3.65;;;;;;;;;;5051043;28;20127;-67
2022/01/09 13:26:31;;;;;;;7.28;3.63;;;;;;;;;;5043794;28;20076;-67
2022/01/09 13:28:58;;;;;;;12.15;4.43;;;;;;;;;;5039340;28;20075;-67
2022/01/09 13:31:24;;;;;;;11.70;4.68;;;;;;;;;;5042243;28;20136;-67
2022/01/09 13:34:04;;;;;;;10.15;3.80;;;;;;;;;;5044556;28;20732;-67
2022/01/09 13:36:33;;;;;;;10.10;4.05;;;;;;;;;;5052758;28;20134;-68
2022/01/09 13:39:24;;;;;;;5.78;2.83;;;;;;;;;;5062724;28;20053;-67
2022/01/09 13:41:59;;;;;;;13.30;4.32;;;;;;;;;;5038426;28;20136;-67
2022/01/09 13:44:36;;;;;;;12.40;5.05;;;;;;;;;;5059939;28;20556;-66
2022/01/09 13:47:04;;;;;;;5.40;3.90;;;;;;;;;;5057241;28;20055;-66
2022/01/09 13:49:31;;;;;;;9.40;3.92;;;;;;;;;;5056688;28;20076;-66
2022/01/09 13:51:59;;;;;;;13.05;3.80;;;;;;;;;;5060807;28;20048;-66
2022/01/09 13:54:27;;;;;;;6.55;3.85;;;;;;;;;;5057549;28;20538;-66
2022/01/09 13:56:59;;;;;;;12.13;3.90;;;;;;;;;;5060137;28;20407;-66
2022/01/09 13:59:36;;;;;;;10.57;4.15;;;;;;;;;;5058233;28;20544;-66
2022/01/09 14:02:05;;;;;;;13.55;3.92;;;;;;;;;;5055060;28;20579;-66
2022/01/09 14:04:32;;;;;;;9.98;3.92;;;;;;;;;;5055157;28;20099;-67
2022/01/09 14:07:00;;;;;;;7.07;4.07;;;;;;;;;;5057621;28;20103;-66
2022/01/09 14:09:35;;;;;;;10.30;4.22;;;;;;;;;;5060819;28;20330;-66
2022/01/09 14:12:04;;;;;;;9.00;4.07;;;;;;;;;;5056414;28;20080;-66
2022/01/09 14:14:32;;;;;;;8.82;4.05;;;;;;;;;;5065318;28;20054;-66
2022/01/09 14:16:58;;;;;;;8.93;4.05;;;;;;;;;;5063163;28;20099;-68
2022/01/09 14:19:42;;;;;;;10.30;4.38;;;;;;;;;;5065228;28;20068;-67
2022/01/09 14:22:16;;;;;;;11.80;4.80;;;;;;;;;;5061142;28;20143;-67
2022/01/09 14:24:55;;;;;;;13.70;4.05;;;;;;;;;;5063657;28;20131;-66
2022/01/09 14:27:24;;;;;;;8.13;4.00;;;;;;;;;;5064369;28;20143;-67
2022/01/09 14:29:51;;;;;;;10.43;4.85;;;;;;;;;;5064793;28;20075;-67
2022/01/09 14:32:18;;;;;;;11.43;4.55;;;;;;;;;;5059589;28;20428;-66
2022/01/09 14:34:49;;;;;;;10.50;4.97;;;;;;;;;;5056213;28;20132;-66
2022/01/09 14:37:15;;;;;;;7.75;3.78;;;;;;;;;;5048615;28;20131;-66
2022/01/09 14:39:42;;;;;;;11.17;5.10;;;;;;;;;;5056501;28;20131;-66
2022/01/09 14:42:08;;;;;;;12.17;4.93;;;;;;;;;;5055023;28;20330;-67
2022/01/09 14:44:36;;;;;;;6.38;3.67;;;;;;;;;;5055864;28;20524;-67
2022/01/09 14:47:03;;;;;;;9.55;4.25;;;;;;;;;;5056213;28;20251;-66
2022/01/09 14:49:32;;;;;;;9.27;4.80;;;;;;;;;;5061519;28;20160;-66
2022/01/09 14:51:59;;;;;;;11.45;4.68;;;;;;;;;;5050651;28;20513;-66
2022/01/09 14:54:25;;;;;;;7.53;4.28;;;;;;;;;;5057839;28;20067;-66